Raymond, Minnesota
Current Conditions -  °F | °C
As of 12:35 AM on Wednesday 28 Jan 2015 (Local Time) from KBDH Reporting Station
Overcast Overcast  
Wind Chill: 22°   Ceiling: 800
Heat Index: 34°   Visibility: 7mi
Dew Point: 30°   Wind: 20mph
Humidity: 87%   Direction: 140°SE
Pressure: 30.01"   Gusts: 24mph
Location:  45.02°N, 95.24°W
Report Text: KBDH 280635Z AUTO 14017G21KT 7SM OVC008 01/M01 A3001 RMK AO2
Loading
Personal Weather Stations






























Interactive Weather Map New forecast layout! Learn more

10-Day Weather Forecast

Advertisements
Track Severe Weather on mobile